sensor_id;sensor_type;location;lat;lon;timestamp;pressure;altitude;pressure_sealevel;temperature;humidity
12349;BME280;5974;42.710;27.258;2023-04-19T00:02:02;99821.44;;;11.01;100.00
12349;BME280;5974;42.710;27.258;2023-04-19T00:04:29;99817.44;;;10.93;100.00
12349;BME280;5974;42.710;27.258;2023-04-19T00:06:58;99816.09;;;11.38;100.00
12349;BME280;5974;42.710;27.258;2023-04-19T00:09:24;99808.34;;;11.01;100.00
12349;BME280;5974;42.710;27.258;2023-04-19T00:11:51;99813.47;;;11.21;100.00
12349;BME280;5974;42.710;27.258;2023-04-19T00:14:18;99817.53;;;11.63;100.00
12349;BME280;5974;42.710;27.258;2023-04-19T00:16:47;99816.59;;;11.64;100.00
12349;BME280;5974;42.710;27.258;2023-04-19T00:19:13;99808.34;;;11.37;100.00
12349;BME280;5974;42.710;27.258;2023-04-19T00:21:40;99803.75;;;11.59;100.00
12349;BME280;5974;42.710;27.258;2023-04-19T00:24:07;99788.19;;;11.90;100.00
12349;BME280;5974;42.710;27.258;2023-04-19T00:26:34;99800.75;;;12.01;100.00
12349;BME280;5974;42.710;27.258;2023-04-19T00:29:01;99799.38;;;11.94;100.00
12349;BME280;5974;42.710;27.258;2023-04-19T00:31:28;99787.06;;;11.79;100.00
12349;BME280;5974;42.710;27.258;2023-04-19T00:33:56;99790.19;;;11.68;100.00
12349;BME280;5974;42.710;27.258;2023-04-19T00:36:23;99785.44;;;11.76;100.00
12349;BME280;5974;42.710;27.258;2023-04-19T00:38:51;99783.53;;;11.80;100.00
12349;BME280;5974;42.710;27.258;2023-04-19T00:41:17;99778.41;;;11.94;100.00
12349;BME280;5974;42.710;27.258;2023-04-19T00:43:44;99782.78;;;12.11;100.00
12349;BME280;5974;42.710;27.258;2023-04-19T00:46:12;99781.47;;;12.19;100.00
12349;BME280;5974;42.710;27.258;2023-04-19T00:48:39;99769.91;;;12.23;100.00
12349;BME280;5974;42.710;27.258;2023-04-19T00:51:08;99763.66;;;12.41;100.00
12349;BME280;5974;42.710;27.258;2023-04-19T00:53:37;99763.00;;;12.54;100.00
12349;BME280;5974;42.710;27.258;2023-04-19T00:56:04;99758.28;;;12.60;100.00
12349;BME280;5974;42.710;27.258;2023-04-19T00:58:32;99747.84;;;12.59;100.00
12349;BME280;5974;42.710;27.258;2023-04-19T01:00:58;99736.88;;;12.36;100.00
12349;BME280;5974;42.710;27.258;2023-04-19T01:03:26;99736.06;;;11.69;100.00
12349;BME280;5974;42.710;27.258;2023-04-19T01:05:54;99748.38;;;11.67;100.00
12349;BME280;5974;42.710;27.258;2023-04-19T01:08:23;99749.75;;;12.08;100.00
12349;BME280;5974;42.710;27.258;2023-04-19T01:10:50;99750.31;;;12.30;100.00
12349;BME280;5974;42.710;27.258;2023-04-19T01:13:17;99745.31;;;12.41;100.00
12349;BME280;5974;42.710;27.258;2023-04-19T01:15:43;99724.75;;;12.49;100.00
12349;BME280;5974;42.710;27.258;2023-04-19T01:18:10;99721.44;;;12.46;100.00
12349;BME280;5974;42.710;27.258;2023-04-19T01:20:38;99715.97;;;12.50;100.00
12349;BME280;5974;42.710;27.258;2023-04-19T01:23:06;99693.28;;;12.49;100.00
12349;BME280;5974;42.710;27.258;2023-04-19T01:25:36;99701.44;;;12.45;100.00
12349;BME280;5974;42.710;27.258;2023-04-19T01:28:03;99707.34;;;12.33;100.00
12349;BME280;5974;42.710;27.258;2023-04-19T01:30:30;99702.94;;;12.33;100.00
12349;BME280;5974;42.710;27.258;2023-04-19T01:32:57;99711.91;;;12.29;100.00
12349;BME280;5974;42.710;27.258;2023-04-19T01:35:24;99708.06;;;12.19;100.00
12349;BME280;5974;42.710;27.258;2023-04-19T01:37:51;99711.03;;;12.13;100.00
12349;BME280;5974;42.710;27.258;2023-04-19T01:40:22;99707.44;;;11.99;100.00
12349;BME280;5974;42.710;27.258;2023-04-19T01:42:49;99709.44;;;11.78;100.00
12349;BME280;5974;42.710;27.258;2023-04-19T01:45:16;99715.31;;;11.99;100.00
12349;BME280;5974;42.710;27.258;2023-04-19T01:47:43;99715.31;;;11.81;100.00
12349;BME280;5974;42.710;27.258;2023-04-19T01:50:10;99718.66;;;11.68;100.00
12349;BME280;5974;42.710;27.258;2023-04-19T01:52:37;99721.13;;;11.71;100.00
12349;BME280;5974;42.710;27.258;2023-04-19T01:55:04;99716.44;;;11.77;100.00
12349;BME280;5974;42.710;27.258;2023-04-19T01:57:32;99700.53;;;11.63;100.00
12349;BME280;5974;42.710;27.258;2023-04-19T02:00:00;99718.03;;;11.63;100.00
12349;BME280;5974;42.710;27.258;2023-04-19T02:02:26;99712.19;;;11.23;100.00
12349;BME280;5974;42.710;27.258;2023-04-19T02:04:53;99701.97;;;10.83;100.00
12349;BME280;5974;42.710;27.258;2023-04-19T02:07:20;99719.22;;;10.87;100.00
12349;BME280;5974;42.710;27.258;2023-04-19T02:09:47;99714.97;;;10.84;100.00
12349;BME280;5974;42.710;27.258;2023-04-19T02:12:15;99736.91;;;10.82;100.00
12349;BME280;5974;42.710;27.258;2023-04-19T02:14:43;99733.88;;;10.72;100.00
12349;BME280;5974;42.710;27.258;2023-04-19T02:17:10;99738.19;;;10.73;100.00
12349;BME280;5974;42.710;27.258;2023-04-19T02:19:37;99741.69;;;10.91;100.00
12349;BME280;5974;42.710;27.258;2023-04-19T02:22:04;99738.88;;;11.30;100.00
12349;BME280;5974;42.710;27.258;2023-04-19T02:24:31;99738.88;;;11.13;100.00
12349;BME280;5974;42.710;27.258;2023-04-19T02:26:58;99740.66;;;11.12;100.00
12349;BME280;5974;42.710;27.258;2023-04-19T02:29:26;99737.66;;;11.54;100.00
12349;BME280;5974;42.710;27.258;2023-04-19T03:12:08;99718.47;;;11.88;100.00
12349;BME280;5974;42.710;27.258;2023-04-19T03:14:35;99719.06;;;12.10;100.00
12349;BME280;5974;42.710;27.258;2023-04-19T03:17:02;99707.28;;;12.02;100.00
12349;BME280;5974;42.710;27.258;2023-04-19T03:19:29;99706.78;;;11.61;100.00
12349;BME280;5974;42.710;27.258;2023-04-19T03:21:56;99712.19;;;11.58;100.00
12349;BME280;5974;42.710;27.258;2023-04-19T03:24:26;99714.41;;;11.65;100.00
12349;BME280;5974;42.710;27.258;2023-04-19T03:26:53;99718.47;;;11.88;100.00
12349;BME280;5974;42.710;27.258;2023-04-19T03:29:21;99712.94;;;11.60;100.00
12349;BME280;5974;42.710;27.258;2023-04-19T03:31:48;99717.72;;;11.52;100.00
12349;BME280;5974;42.710;27.258;2023-04-19T03:34:15;99713.09;;;11.57;100.00
12349;BME280;5974;42.710;27.258;2023-04-19T03:36:42;99716.25;;;12.13;100.00
12349;BME280;5974;42.710;27.258;2023-04-19T03:39:09;99710.03;;;12.31;100.00
12349;BME280;5974;42.710;27.258;2023-04-19T03:41:36;99703.44;;;12.40;100.00
12349;BME280;5974;42.710;27.258;2023-04-19T03:44:03;99680.56;;;11.95;100.00
12349;BME280;5974;42.710;27.258;2023-04-19T03:46:31;99689.63;;;12.05;100.00
12349;BME280;5974;42.710;27.258;2023-04-19T03:48:58;99689.75;;;12.35;100.00
12349;BME280;5974;42.710;27.258;2023-04-19T03:51:25;99684.66;;;12.32;100.00
12349;BME280;5974;42.710;27.258;2023-04-19T03:53:52;99680.00;;;12.52;100.00
12349;BME280;5974;42.710;27.258;2023-04-19T03:56:19;99681.47;;;12.42;100.00
12349;BME280;5974;42.710;27.258;2023-04-19T03:58:46;99683.78;;;12.00;100.00
12349;BME280;5974;42.710;27.258;2023-04-19T04:01:17;99687.84;;;11.73;100.00
12349;BME280;5974;42.710;27.258;2023-04-19T04:03:45;99693.63;;;12.28;100.00
12349;BME280;5974;42.710;27.258;2023-04-19T04:06:12;99686.78;;;12.57;100.00
12349;BME280;5974;42.710;27.258;2023-04-19T04:08:39;99657.53;;;12.48;100.00
12349;BME280;5974;42.710;27.258;2023-04-19T04:11:06;99653.69;;;12.07;100.00
12349;BME280;5974;42.710;27.258;2023-04-19T04:13:33;99691.53;;;11.86;100.00
12349;BME280;5974;42.710;27.258;2023-04-19T04:16:00;99698.38;;;11.54;100.00
12349;BME280;5974;42.710;27.258;2023-04-19T04:18:27;99701.56;;;11.43;100.00
12349;BME280;5974;42.710;27.258;2023-04-19T04:20:56;99712.31;;;11.89;100.00
12349;BME280;5974;42.710;27.258;2023-04-19T04:23:24;99717.13;;;11.81;100.00
12349;BME280;5974;42.710;27.258;2023-04-19T04:25:56;99713.59;;;12.30;100.00
12349;BME280;5974;42.710;27.258;2023-04-19T04:28:23;99703.28;;;12.59;100.00
12349;BME280;5974;42.710;27.258;2023-04-19T04:30:51;99701.31;;;12.93;100.00
12349;BME280;5974;42.710;27.258;2023-04-19T04:33:17;99680.44;;;12.76;100.00
12349;BME280;5974;42.710;27.258;2023-04-19T04:35:44;99670.41;;;12.83;100.00
12349;BME280;5974;42.710;27.258;2023-04-19T04:38:13;99644.78;;;12.42;100.00
12349;BME280;5974;42.710;27.258;2023-04-19T04:40:41;99667.94;;;12.50;100.00
12349;BME280;5974;42.710;27.258;2023-04-19T04:43:07;99670.19;;;12.40;100.00
12349;BME280;5974;42.710;27.258;2023-04-19T04:45:35;99673.94;;;12.21;100.00
12349;BME280;5974;42.710;27.258;2023-04-19T04:48:03;99679.09;;;12.38;100.00
12349;BME280;5974;42.710;27.258;2023-04-19T04:50:29;99677.22;;;12.56;100.00
12349;BME280;5974;42.710;27.258;2023-04-19T04:52:56;99681.38;;;12.75;100.00
12349;BME280;5974;42.710;27.258;2023-04-19T04:55:25;99682.78;;;12.81;100.00
12349;BME280;5974;42.710;27.258;2023-04-19T04:57:51;99678.91;;;12.72;100.00
12349;BME280;5974;42.710;27.258;2023-04-19T05:00:19;99673.50;;;12.75;100.00
12349;BME280;5974;42.710;27.258;2023-04-19T05:02:46;99673.00;;;12.69;100.00
12349;BME280;5974;42.710;27.258;2023-04-19T05:05:12;99678.34;;;12.67;100.00
12349;BME280;5974;42.710;27.258;2023-04-19T05:07:39;99686.97;;;12.54;100.00
12349;BME280;5974;42.710;27.258;2023-04-19T05:10:07;99680.69;;;12.72;100.00
12349;BME280;5974;42.710;27.258;2023-04-19T05:12:36;99666.38;;;12.62;100.00
12349;BME280;5974;42.710;27.258;2023-04-19T05:15:04;99675.78;;;12.66;100.00
12349;BME280;5974;42.710;27.258;2023-04-19T05:17:32;99678.16;;;12.39;100.00
12349;BME280;5974;42.710;27.258;2023-04-19T05:19:58;99685.75;;;12.12;100.00
12349;BME280;5974;42.710;27.258;2023-04-19T05:22:26;99693.69;;;12.11;100.00
12349;BME280;5974;42.710;27.258;2023-04-19T05:24:53;99685.84;;;12.26;100.00
12349;BME280;5974;42.710;27.258;2023-04-19T05:27:21;99673.28;;;12.00;100.00
12349;BME280;5974;42.710;27.258;2023-04-19T05:29:49;99680.84;;;12.22;100.00
12349;BME280;5974;42.710;27.258;2023-04-19T05:32:16;99684.16;;;12.41;100.00
12349;BME280;5974;42.710;27.258;2023-04-19T05:34:43;99693.72;;;12.26;100.00
12349;BME280;5974;42.710;27.258;2023-04-19T05:37:10;99689.72;;;12.19;100.00
12349;BME280;5974;42.710;27.258;2023-04-19T05:39:37;99688.34;;;12.12;100.00
12349;BME280;5974;42.710;27.258;2023-04-19T05:42:04;99688.56;;;12.40;100.00
12349;BME280;5974;42.710;27.258;2023-04-19T05:44:31;99692.53;;;12.47;100.00
12349;BME280;5974;42.710;27.258;2023-04-19T05:46:59;99694.31;;;12.63;100.00
12349;BME280;5974;42.710;27.258;2023-04-19T05:49:26;99688.72;;;12.53;100.00
12349;BME280;5974;42.710;27.258;2023-04-19T05:51:53;99691.97;;;12.42;100.00
12349;BME280;5974;42.710;27.258;2023-04-19T05:54:21;99689.56;;;12.22;100.00
12349;BME280;5974;42.710;27.258;2023-04-19T05:56:48;99695.81;;;12.20;100.00
12349;BME280;5974;42.710;27.258;2023-04-19T05:59:15;99688.69;;;12.06;100.00
12349;BME280;5974;42.710;27.258;2023-04-19T06:01:42;99697.19;;;11.94;100.00
12349;BME280;5974;42.710;27.258;2023-04-19T06:04:10;99695.03;;;12.02;100.00
12349;BME280;5974;42.710;27.258;2023-04-19T06:06:37;99704.25;;;12.09;100.00
12349;BME280;5974;42.710;27.258;2023-04-19T06:09:04;99704.09;;;12.12;100.00
12349;BME280;5974;42.710;27.258;2023-04-19T06:11:31;99709.97;;;12.00;100.00
12349;BME280;5974;42.710;27.258;2023-04-19T06:13:58;99712.88;;;12.11;100.00
12349;BME280;5974;42.710;27.258;2023-04-19T06:16:25;99700.44;;;11.99;100.00
12349;BME280;5974;42.710;27.258;2023-04-19T06:18:52;99703.66;;;12.04;100.00
12349;BME280;5974;42.710;27.258;2023-04-19T06:21:20;99704.44;;;12.22;100.00
12349;BME280;5974;42.710;27.258;2023-04-19T06:23:47;99695.72;;;12.21;100.00
12349;BME280;5974;42.710;27.258;2023-04-19T06:26:14;99692.63;;;12.30;100.00
12349;BME280;5974;42.710;27.258;2023-04-19T06:28:41;99692.19;;;12.22;100.00
12349;BME280;5974;42.710;27.258;2023-04-19T06:31:07;99689.91;;;12.32;100.00
12349;BME280;5974;42.710;27.258;2023-04-19T06:33:34;99694.81;;;12.38;100.00
12349;BME280;5974;42.710;27.258;2023-04-19T06:36:01;99685.59;;;12.46;100.00
12349;BME280;5974;42.710;27.258;2023-04-19T06:38:30;99691.63;;;12.48;100.00
12349;BME280;5974;42.710;27.258;2023-04-19T06:40:56;99686.03;;;12.39;100.00
12349;BME280;5974;42.710;27.258;2023-04-19T06:43:23;99678.84;;;12.42;100.00
12349;BME280;5974;42.710;27.258;2023-04-19T06:45:57;99687.97;;;12.35;100.00
12349;BME280;5974;42.710;27.258;2023-04-19T06:48:23;99682.78;;;12.18;100.00
12349;BME280;5974;42.710;27.258;2023-04-19T06:50:50;99687.03;;;12.21;100.00
12349;BME280;5974;42.710;27.258;2023-04-19T06:53:17;99686.75;;;12.10;100.00
12349;BME280;5974;42.710;27.258;2023-04-19T06:55:45;99684.22;;;12.08;100.00
12349;BME280;5974;42.710;27.258;2023-04-19T06:58:12;99686.53;;;12.14;100.00
12349;BME280;5974;42.710;27.258;2023-04-19T07:00:39;99687.97;;;12.20;100.00
12349;BME280;5974;42.710;27.258;2023-04-19T07:03:06;99670.47;;;12.20;100.00
12349;BME280;5974;42.710;27.258;2023-04-19T07:05:35;99684.84;;;12.44;100.00
12349;BME280;5974;42.710;27.258;2023-04-19T07:08:02;99679.03;;;12.39;100.00
12349;BME280;5974;42.710;27.258;2023-04-19T07:10:28;99689.16;;;12.45;100.00
12349;BME280;5974;42.710;27.258;2023-04-19T07:12:57;99686.69;;;12.58;100.00
12349;BME280;5974;42.710;27.258;2023-04-19T07:15:24;99694.16;;;12.66;100.00
12349;BME280;5974;42.710;27.258;2023-04-19T07:17:51;99686.84;;;12.71;100.00
12349;BME280;5974;42.710;27.258;2023-04-19T07:20:17;99683.41;;;12.70;100.00
12349;BME280;5974;42.710;27.258;2023-04-19T07:22:44;99683.81;;;12.78;100.00
12349;BME280;5974;42.710;27.258;2023-04-19T07:25:13;99685.41;;;12.65;100.00
12349;BME280;5974;42.710;27.258;2023-04-19T07:27:40;99653.97;;;12.34;100.00
12349;BME280;5974;42.710;27.258;2023-04-19T07:30:09;99694.41;;;12.61;100.00
12349;BME280;5974;42.710;27.258;2023-04-19T07:32:36;99697.09;;;12.60;100.00
12349;BME280;5974;42.710;27.258;2023-04-19T07:35:03;99707.66;;;12.74;100.00
12349;BME280;5974;42.710;27.258;2023-04-19T07:37:31;99705.47;;;12.82;100.00
12349;BME280;5974;42.710;27.258;2023-04-19T07:39:58;99700.47;;;12.93;100.00
12349;BME280;5974;42.710;27.258;2023-04-19T07:42:25;99703.19;;;12.76;100.00
12349;BME280;5974;42.710;27.258;2023-04-19T07:44:52;99702.50;;;13.33;100.00
12349;BME280;5974;42.710;27.258;2023-04-19T07:47:20;99698.13;;;13.34;100.00
12349;BME280;5974;42.710;27.258;2023-04-19T07:49:50;99692.28;;;14.01;100.00
12349;BME280;5974;42.710;27.258;2023-04-19T07:52:17;99689.25;;;13.65;100.00
12349;BME280;5974;42.710;27.258;2023-04-19T07:54:44;99691.88;;;13.21;100.00
12349;BME280;5974;42.710;27.258;2023-04-19T07:57:11;99692.28;;;13.29;100.00
12349;BME280;5974;42.710;27.258;2023-04-19T07:59:38;99666.47;;;12.76;100.00
12349;BME280;5974;42.710;27.258;2023-04-19T08:02:05;99693.38;;;12.95;100.00
12349;BME280;5974;42.710;27.258;2023-04-19T08:04:34;99700.06;;;12.85;100.00
12349;BME280;5974;42.710;27.258;2023-04-19T08:07:01;99702.50;;;12.88;100.00
12349;BME280;5974;42.710;27.258;2023-04-19T08:09:29;99711.41;;;12.85;100.00
12349;BME280;5974;42.710;27.258;2023-04-19T08:11:56;99715.13;;;12.81;100.00
12349;BME280;5974;42.710;27.258;2023-04-19T08:14:22;99725.94;;;12.91;100.00
12349;BME280;5974;42.710;27.258;2023-04-19T08:16:49;99712.03;;;12.89;100.00
12349;BME280;5974;42.710;27.258;2023-04-19T08:19:16;99714.19;;;12.98;100.00
12349;BME280;5974;42.710;27.258;2023-04-19T08:21:44;99716.53;;;13.02;100.00
12349;BME280;5974;42.710;27.258;2023-04-19T08:24:11;99711.50;;;13.29;100.00
12349;BME280;5974;42.710;27.258;2023-04-19T08:26:38;99716.88;;;13.12;100.00
12349;BME280;5974;42.710;27.258;2023-04-19T08:29:06;99706.66;;;13.37;100.00
12349;BME280;5974;42.710;27.258;2023-04-19T08:31:33;99710.44;;;13.02;100.00
12349;BME280;5974;42.710;27.258;2023-04-19T08:34:00;99713.19;;;12.85;100.00
12349;BME280;5974;42.710;27.258;2023-04-19T08:36:28;99709.88;;;12.81;100.00
12349;BME280;5974;42.710;27.258;2023-04-19T08:38:56;99704.22;;;12.73;100.00
12349;BME280;5974;42.710;27.258;2023-04-19T08:41:25;99706.47;;;12.95;100.00
12349;BME280;5974;42.710;27.258;2023-04-19T08:43:54;99688.22;;;13.23;100.00
12349;BME280;5974;42.710;27.258;2023-04-19T08:46:22;99703.66;;;13.43;100.00
12349;BME280;5974;42.710;27.258;2023-04-19T08:48:51;99688.88;;;13.13;100.00
12349;BME280;5974;42.710;27.258;2023-04-19T08:51:18;99693.59;;;13.36;100.00
12349;BME280;5974;42.710;27.258;2023-04-19T08:53:46;99694.81;;;13.30;100.00
12349;BME280;5974;42.710;27.258;2023-04-19T08:56:16;99696.91;;;13.39;100.00
12349;BME280;5974;42.710;27.258;2023-04-19T08:58:43;99696.81;;;13.41;100.00
12349;BME280;5974;42.710;27.258;2023-04-19T09:01:10;99701.00;;;13.29;100.00
12349;BME280;5974;42.710;27.258;2023-04-19T09:03:42;99702.56;;;13.02;100.00
12349;BME280;5974;42.710;27.258;2023-04-19T09:06:10;99705.75;;;13.23;100.00
12349;BME280;5974;42.710;27.258;2023-04-19T09:08:38;99709.81;;;13.28;100.00
12349;BME280;5974;42.710;27.258;2023-04-19T09:11:06;99720.56;;;13.53;100.00
12349;BME280;5974;42.710;27.258;2023-04-19T09:13:34;99712.63;;;13.69;100.00
12349;BME280;5974;42.710;27.258;2023-04-19T09:16:03;99708.19;;;13.55;100.00
12349;BME280;5974;42.710;27.258;2023-04-19T09:18:32;99709.81;;;13.28;100.00
12349;BME280;5974;42.710;27.258;2023-04-19T09:21:00;99720.91;;;13.47;100.00
12349;BME280;5974;42.710;27.258;2023-04-19T09:23:27;99725.78;;;13.10;100.00
12349;BME280;5974;42.710;27.258;2023-04-19T09:25:55;99725.78;;;12.78;100.00
12349;BME280;5974;42.710;27.258;2023-04-19T09:28:25;99706.66;;;12.76;100.00
12349;BME280;5974;42.710;27.258;2023-04-19T09:30:54;99736.28;;;13.10;100.00
12349;BME280;5974;42.710;27.258;2023-04-19T09:33:31;99727.13;;;13.01;100.00
12349;BME280;5974;42.710;27.258;2023-04-19T09:35:59;99729.50;;;12.74;100.00
12349;BME280;5974;42.710;27.258;2023-04-19T09:38:26;99724.09;;;13.38;100.00
12349;BME280;5974;42.710;27.258;2023-04-19T09:41:04;99723.44;;;14.07;100.00
12349;BME280;5974;42.710;27.258;2023-04-19T09:43:32;99711.78;;;14.94;100.00
12349;BME280;5974;42.710;27.258;2023-04-19T09:46:00;99691.31;;;15.12;100.00
12349;BME280;5974;42.710;27.258;2023-04-19T09:48:27;99663.06;;;14.75;100.00
12349;BME280;5974;42.710;27.258;2023-04-19T09:50:56;99684.56;;;14.26;100.00
12349;BME280;5974;42.710;27.258;2023-04-19T09:53:23;99701.47;;;13.80;100.00
12349;BME280;5974;42.710;27.258;2023-04-19T09:55:51;99708.41;;;13.67;100.00
12349;BME280;5974;42.710;27.258;2023-04-19T09:58:18;99685.41;;;13.56;100.00
12349;BME280;5974;42.710;27.258;2023-04-19T10:00:47;99707.59;;;14.08;100.00
12349;BME280;5974;42.710;27.258;2023-04-19T10:03:18;99687.47;;;14.22;100.00
12349;BME280;5974;42.710;27.258;2023-04-19T10:05:46;99706.31;;;13.57;100.00
12349;BME280;5974;42.710;27.258;2023-04-19T10:08:13;99706.06;;;13.76;100.00
12349;BME280;5974;42.710;27.258;2023-04-19T10:10:40;99702.03;;;13.71;100.00
12349;BME280;5974;42.710;27.258;2023-04-19T10:13:10;99703.13;;;13.52;100.00
12349;BME280;5974;42.710;27.258;2023-04-19T10:15:37;99688.53;;;13.77;100.00
12349;BME280;5974;42.710;27.258;2023-04-19T10:18:05;99703.91;;;14.25;100.00
12349;BME280;5974;42.710;27.258;2023-04-19T10:20:38;99696.00;;;14.53;100.00
12349;BME280;5974;42.710;27.258;2023-04-19T10:23:07;99688.25;;;14.79;100.00
12349;BME280;5974;42.710;27.258;2023-04-19T10:25:36;99697.28;;;14.75;100.00
12349;BME280;5974;42.710;27.258;2023-04-19T10:28:03;99696.75;;;14.55;100.00
12349;BME280;5974;42.710;27.258;2023-04-19T10:30:30;99701.22;;;14.68;100.00
12349;BME280;5974;42.710;27.258;2023-04-19T10:32:58;99693.56;;;14.91;100.00
12349;BME280;5974;42.710;27.258;2023-04-19T10:35:34;99695.03;;;14.95;100.00
12349;BME280;5974;42.710;27.258;2023-04-19T10:38:07;99699.00;;;14.61;100.00
12349;BME280;5974;42.710;27.258;2023-04-19T10:40:56;99691.50;;;14.55;100.00
12349;BME280;5974;42.710;27.258;2023-04-19T10:43:26;99696.94;;;14.67;100.00
12349;BME280;5974;42.710;27.258;2023-04-19T10:45:53;99680.34;;;14.79;100.00
12349;BME280;5974;42.710;27.258;2023-04-19T10:51:22;99690.78;;;14.39;100.00
12349;BME280;5974;42.710;27.258;2023-04-19T10:53:52;99689.22;;;14.63;100.00
12349;BME280;5974;42.710;27.258;2023-04-19T10:56:20;99700.47;;;14.39;100.00
12349;BME280;5974;42.710;27.258;2023-04-19T10:59:13;99694.81;;;14.86;100.00
12349;BME280;5974;42.710;27.258;2023-04-19T11:01:53;99703.28;;;15.03;100.00
12349;BME280;5974;42.710;27.258;2023-04-19T11:04:22;99653.47;;;15.65;100.00
12349;BME280;5974;42.710;27.258;2023-04-19T11:07:01;99675.25;;;14.49;100.00
12349;BME280;5974;42.710;27.258;2023-04-19T11:09:30;99688.91;;;14.27;100.00
12349;BME280;5974;42.710;27.258;2023-04-19T11:12:00;99685.34;;;14.69;100.00
12349;BME280;5974;42.710;27.258;2023-04-19T11:14:29;99671.66;;;14.91;100.00
12349;BME280;5974;42.710;27.258;2023-04-19T11:16:58;99669.66;;;14.68;100.00
12349;BME280;5974;42.710;27.258;2023-04-19T11:19:25;99679.19;;;14.28;100.00
12349;BME280;5974;42.710;27.258;2023-04-19T11:21:52;99669.09;;;14.07;100.00
12349;BME280;5974;42.710;27.258;2023-04-19T11:24:24;99682.72;;;13.86;100.00
12349;BME280;5974;42.710;27.258;2023-04-19T11:26:51;99681.56;;;13.62;100.00
12349;BME280;5974;42.710;27.258;2023-04-19T11:29:19;99681.38;;;13.65;100.00
12349;BME280;5974;42.710;27.258;2023-04-19T11:31:47;99653.00;;;13.41;100.00
12349;BME280;5974;42.710;27.258;2023-04-19T11:34:14;99668.44;;;13.62;100.00
12349;BME280;5974;42.710;27.258;2023-04-19T11:36:50;99685.41;;;13.70;100.00
12349;BME280;5974;42.710;27.258;2023-04-19T11:39:18;99689.63;;;13.73;100.00
12349;BME280;5974;42.710;27.258;2023-04-19T11:41:47;99697.72;;;13.84;100.00
12349;BME280;5974;42.710;27.258;2023-04-19T11:44:14;99685.25;;;14.01;100.00
12349;BME280;5974;42.710;27.258;2023-04-19T11:46:41;99675.81;;;14.54;100.00
12349;BME280;5974;42.710;27.258;2023-04-19T11:49:08;99675.53;;;14.85;100.00
12349;BME280;5974;42.710;27.258;2023-04-19T11:51:35;99674.22;;;14.51;100.00
12349;BME280;5974;42.710;27.258;2023-04-19T11:54:11;99679.41;;;14.25;100.00
12349;BME280;5974;42.710;27.258;2023-04-19T11:57:04;99675.91;;;14.52;100.00
12349;BME280;5974;42.710;27.258;2023-04-19T11:59:33;99667.06;;;14.80;100.00
12349;BME280;5974;42.710;27.258;2023-04-19T12:02:05;99670.06;;;14.61;100.00
12349;BME280;5974;42.710;27.258;2023-04-19T12:04:31;99662.72;;;14.67;100.00
12349;BME280;5974;42.710;27.258;2023-04-19T12:07:00;99655.47;;;14.70;100.00
12349;BME280;5974;42.710;27.258;2023-04-19T12:09:27;99659.25;;;15.05;100.00
12349;BME280;5974;42.710;27.258;2023-04-19T12:11:54;99651.09;;;14.83;100.00
12349;BME280;5974;42.710;27.258;2023-04-19T12:14:24;99648.16;;;14.88;100.00
12349;BME280;5974;42.710;27.258;2023-04-19T12:17:08;99652.00;;;14.70;100.00
12349;BME280;5974;42.710;27.258;2023-04-19T12:19:35;99654.66;;;14.55;100.00
12349;BME280;5974;42.710;27.258;2023-04-19T12:22:10;99667.59;;;15.12;100.00
12349;BME280;5974;42.710;27.258;2023-04-19T12:24:39;99646.13;;;14.79;100.00
12349;BME280;5974;42.710;27.258;2023-04-19T12:27:08;99648.25;;;14.59;100.00
12349;BME280;5974;42.710;27.258;2023-04-19T12:29:38;99642.78;;;14.22;100.00
12349;BME280;5974;42.710;27.258;2023-04-19T12:32:05;99646.06;;;14.25;100.00
12349;BME280;5974;42.710;27.258;2023-04-19T12:34:32;99643.69;;;14.49;100.00
12349;BME280;5974;42.710;27.258;2023-04-19T12:36:59;99652.69;;;14.59;100.00
12349;BME280;5974;42.710;27.258;2023-04-19T12:39:25;99645.94;;;14.55;100.00
12349;BME280;5974;42.710;27.258;2023-04-19T12:41:53;99640.47;;;14.85;100.00
12349;BME280;5974;42.710;27.258;2023-04-19T12:44:20;99637.53;;;14.89;100.00
12349;BME280;5974;42.710;27.258;2023-04-19T12:46:48;99635.38;;;14.69;100.00
12349;BME280;5974;42.710;27.258;2023-04-19T12:49:17;99634.31;;;14.72;100.00
12349;BME280;5974;42.710;27.258;2023-04-19T12:51:45;99640.28;;;14.88;100.00
12349;BME280;5974;42.710;27.258;2023-04-19T12:54:12;99608.13;;;14.83;100.00
12349;BME280;5974;42.710;27.258;2023-04-19T12:56:39;99612.88;;;14.51;100.00
12349;BME280;5974;42.710;27.258;2023-04-19T12:59:06;99633.56;;;14.43;100.00
12349;BME280;5974;42.710;27.258;2023-04-19T13:01:33;99636.84;;;14.32;100.00
12349;BME280;5974;42.710;27.258;2023-04-19T13:04:01;99641.91;;;14.49;100.00
12349;BME280;5974;42.710;27.258;2023-04-19T13:06:28;99642.41;;;14.42;100.00
12349;BME280;5974;42.710;27.258;2023-04-19T13:08:55;99642.75;;;14.77;100.00
12349;BME280;5974;42.710;27.258;2023-04-19T13:11:22;99639.47;;;15.00;100.00
12349;BME280;5974;42.710;27.258;2023-04-19T13:13:50;99648.97;;;15.15;100.00
12349;BME280;5974;42.710;27.258;2023-04-19T13:16:17;99645.19;;;15.19;100.00
12349;BME280;5974;42.710;27.258;2023-04-19T13:18:45;99635.59;;;15.18;100.00
12349;BME280;5974;42.710;27.258;2023-04-19T13:21:13;99634.31;;;15.50;100.00
12349;BME280;5974;42.710;27.258;2023-04-19T13:23:42;99627.50;;;15.21;100.00
12349;BME280;5974;42.710;27.258;2023-04-19T13:26:09;99632.34;;;15.27;100.00
12349;BME280;5974;42.710;27.258;2023-04-19T13:28:36;99620.41;;;14.70;100.00
12349;BME280;5974;42.710;27.258;2023-04-19T13:31:04;99630.41;;;15.04;100.00
12349;BME280;5974;42.710;27.258;2023-04-19T13:33:31;99626.97;;;15.41;100.00
12349;BME280;5974;42.710;27.258;2023-04-19T13:35:58;99624.59;;;15.51;100.00
12349;BME280;5974;42.710;27.258;2023-04-19T13:38:26;99624.72;;;15.49;100.00